Time;durP1;ratioP1;P1;durP2;ratioP2;P2;SDS_P1;SDS_P2;PMS_P1;PMS_P2;Temp;Humidity;BMP_temperature;BMP_pressure;BME280_temperature;BME280_humidity;BME280_pressure;Samples;Min_cycle;Max_cycle;Signal;HPM_P1;HPM_P2
2021/08/10 00:01:00;;;;;;;4.87;2.60;;;15.40;99.90;;;;;;5053425;28;20316;-68
2021/08/10 00:03:25;;;;;;;3.83;3.40;;;15.40;99.90;;;;;;5053119;28;20179;-69
2021/08/10 00:05:51;;;;;;;2.90;2.60;;;15.40;99.90;;;;;;5053161;28;20645;-69
2021/08/10 00:08:21;;;;;;;4.03;3.63;;;15.40;99.90;;;;;;5051833;28;20287;-69
2021/08/10 00:10:48;;;;;;;3.10;2.80;;;15.40;99.90;;;;;;5052936;28;20245;-69
2021/08/10 00:13:15;;;;;;;6.03;3.40;;;15.50;99.90;;;;;;5053233;28;20765;-68
2021/08/10 00:15:41;;;;;;;3.50;2.80;;;15.40;99.90;;;;;;5053042;28;20413;-68
2021/08/10 00:18:07;;;;;;;4.03;3.17;;;15.30;99.90;;;;;;5052825;28;21106;-67
2021/08/10 00:20:33;;;;;;;4.30;3.37;;;15.30;99.90;;;;;;5052966;28;20167;-68
2021/08/10 00:22:58;;;;;;;2.90;2.60;;;15.30;99.90;;;;;;5052556;28;20409;-68
2021/08/10 00:25:24;;;;;;;3.30;3.00;;;15.20;99.90;;;;;;5052703;28;20444;-68
2021/08/10 00:27:50;;;;;;;3.23;2.93;;;15.20;99.90;;;;;;5052456;28;20217;-68
2021/08/10 00:30:15;;;;;;;3.73;3.37;;;15.20;99.90;;;;;;5052897;28;20231;-68
2021/08/10 00:32:41;;;;;;;5.80;3.20;;;15.20;99.90;;;;;;5052563;28;20175;-68
2021/08/10 00:35:07;;;;;;;4.70;3.37;;;15.20;99.90;;;;;;5051279;28;20182;-68
2021/08/10 00:37:32;;;;;;;5.60;3.87;;;15.10;99.90;;;;;;5052347;28;20175;-69
2021/08/10 00:39:58;;;;;;;4.57;2.80;;;15.10;99.90;;;;;;5052406;28;20171;-69
2021/08/10 00:42:23;;;;;;;3.63;3.33;;;15.10;99.90;;;;;;5052283;28;20553;-68
2021/08/10 00:44:49;;;;;;;4.93;3.50;;;15.10;99.90;;;;;;5051352;28;20228;-68
2021/08/10 00:47:14;;;;;;;13.60;4.33;;;15.10;99.90;;;;;;5052114;28;20166;-68
2021/08/10 00:49:40;;;;;;;3.67;3.37;;;15.10;99.90;;;;;;5052257;28;20269;-68
2021/08/10 00:52:06;;;;;;;3.47;3.20;;;15.20;99.90;;;;;;5052031;28;20205;-68
2021/08/10 00:54:32;;;;;;;3.77;3.17;;;15.20;99.90;;;;;;5052078;28;20171;-68
2021/08/10 00:56:58;;;;;;;8.33;3.87;;;15.20;99.90;;;;;;5051890;28;20480;-68
2021/08/10 00:59:23;;;;;;;4.87;3.70;;;15.20;99.90;;;;;;5051965;28;20449;-68
2021/08/10 01:01:49;;;;;;;4.97;3.77;;;15.30;99.90;;;;;;5052895;28;20226;-69
2021/08/10 01:04:15;;;;;;;4.17;3.03;;;15.30;99.90;;;;;;5051753;28;20198;-68
2021/08/10 01:06:48;;;;;;;3.53;3.23;;;15.30;99.90;;;;;;5051983;28;20172;-68
2021/08/10 01:09:28;;;;;;;3.63;2.97;;;15.30;99.90;;;;;;5051833;28;20242;-68
2021/08/10 01:12:13;;;;;;;8.67;3.27;;;15.30;99.90;;;;;;5051968;28;20421;-69
2021/08/10 01:14:56;;;;;;;4.90;3.37;;;15.30;99.90;;;;;;5051845;28;20497;-69
2021/08/10 01:17:38;;;;;;;4.03;3.73;;;15.30;99.90;;;;;;5051757;28;20402;-68
2021/08/10 01:20:30;;;;;;;3.97;2.93;;;15.30;99.90;;;;;;5051652;28;20412;-68
2021/08/10 01:22:57;;;;;;;4.03;3.33;;;15.30;99.90;;;;;;5051767;28;20470;-69
2021/08/10 01:25:41;;;;;;;8.47;3.53;;;15.20;99.90;;;;;;5051374;28;20544;-68
2021/08/10 01:28:18;;;;;;;4.20;3.40;;;15.20;99.90;;;;;;5051306;28;20878;-68
2021/08/10 01:31:05;;;;;;;6.63;4.13;;;15.20;99.90;;;;;;5051366;28;20428;-68
2021/08/10 01:33:38;;;;;;;3.73;3.00;;;15.20;99.90;;;;;;5051479;28;20390;-68
2021/08/10 01:36:06;;;;;;;7.43;3.73;;;15.20;99.90;;;;;;5051566;28;20551;-68
2021/08/10 01:38:33;;;;;;;6.37;4.20;;;15.20;99.90;;;;;;5051130;28;20437;-69
2021/08/10 01:41:00;;;;;;;4.20;3.80;;;15.20;99.90;;;;;;5051194;28;20413;-68
2021/08/10 01:43:28;;;;;;;5.47;3.77;;;15.20;99.90;;;;;;5048398;28;20785;-69
2021/08/10 01:45:54;;;;;;;3.67;3.30;;;15.20;99.90;;;;;;5051172;28;20449;-68
2021/08/10 01:48:21;;;;;;;5.33;3.57;;;15.10;99.90;;;;;;5051155;28;20848;-69
2021/08/10 01:50:47;;;;;;;6.90;3.90;;;15.20;99.90;;;;;;5051123;28;20189;-69
2021/08/10 01:53:14;;;;;;;4.40;3.67;;;15.10;99.90;;;;;;5052132;28;20406;-69
2021/08/10 01:55:41;;;;;;;3.63;3.20;;;15.10;99.90;;;;;;5052943;28;20412;-70
2021/08/10 01:58:07;;;;;;;3.93;3.10;;;15.10;99.90;;;;;;5051592;28;20919;-69
2021/08/10 02:00:35;;;;;;;4.17;3.77;;;15.10;99.90;;;;;;5053064;28;20440;-69
2021/08/10 02:03:06;;;;;;;3.40;3.10;;;15.10;99.90;;;;;;5050946;28;20429;-70
2021/08/10 02:05:34;;;;;;;3.80;3.50;;;15.10;99.90;;;;;;5053645;28;20988;-69
2021/08/10 02:08:00;;;;;;;4.43;3.07;;;15.00;99.90;;;;;;5051188;28;20410;-68
2021/08/10 02:10:27;;;;;;;4.63;3.47;;;15.10;99.90;;;;;;5053325;28;20827;-69
2021/08/10 02:12:53;;;;;;;3.50;3.20;;;15.10;99.90;;;;;;5052471;28;20463;-67
2021/08/10 02:15:18;;;;;;;4.17;3.77;;;15.10;99.90;;;;;;5051688;28;20758;-68
2021/08/10 02:17:44;;;;;;;5.03;3.30;;;15.10;99.90;;;;;;5050786;28;20513;-68
2021/08/10 02:20:13;;;;;;;4.23;3.40;;;15.10;99.90;;;;;;5051002;28;20175;-68
2021/08/10 02:22:42;;;;;;;3.97;3.67;;;15.10;99.90;;;;;;5050669;28;20187;-68
2021/08/10 02:25:10;;;;;;;3.93;3.13;;;15.10;99.90;;;;;;5051080;28;20461;-68
2021/08/10 02:27:49;;;;;;;3.43;3.07;;;15.10;99.90;;;;;;5050899;28;20571;-68
2021/08/10 02:30:18;;;;;;;3.33;3.00;;;15.00;99.90;;;;;;5051444;28;20414;-67
2021/08/10 02:32:45;;;;;;;4.37;3.97;;;15.10;99.90;;;;;;5050887;28;20410;-68
2021/08/10 02:35:17;;;;;;;4.27;3.67;;;15.10;99.90;;;;;;5051129;28;20958;-68
2021/08/10 02:37:43;;;;;;;3.83;3.53;;;15.10;99.90;;;;;;5050969;28;20420;-67
2021/08/10 02:40:11;;;;;;;4.30;3.60;;;15.10;99.90;;;;;;5050986;28;20409;-69
2021/08/10 02:42:37;;;;;;;3.97;3.67;;;15.10;99.90;;;;;;5050603;28;20797;-67
2021/08/10 02:45:04;;;;;;;6.13;4.00;;;15.10;99.90;;;;;;5050916;28;20467;-68
2021/08/10 02:47:30;;;;;;;3.73;3.30;;;15.10;99.90;;;;;;5050877;28;20459;-69
2021/08/10 02:49:56;;;;;;;6.67;3.50;;;15.10;99.90;;;;;;5050751;28;20410;-69
2021/08/10 02:52:21;;;;;;;6.13;4.00;;;15.10;99.90;;;;;;5050748;28;20460;-68
2021/08/10 02:54:47;;;;;;;4.20;3.67;;;15.10;99.90;;;;;;5051002;28;20646;-68
2021/08/10 02:57:33;;;;;;;3.97;3.03;;;15.00;99.90;;;;;;5050540;28;20194;-68
2021/08/10 03:00:09;;;;;;;3.83;3.53;;;15.00;99.90;;;;;;5050590;28;20516;-69
2021/08/10 03:02:40;;;;;;;4.43;3.67;;;15.00;99.90;;;;;;5050970;28;20903;-68
2021/08/10 03:05:11;;;;;;;3.63;3.23;;;15.10;99.90;;;;;;5050841;28;20455;-69
2021/08/10 03:07:56;;;;;;;4.37;3.97;;;15.00;99.90;;;;;;5050993;28;20429;-68
2021/08/10 03:10:25;;;;;;;5.33;3.87;;;15.00;99.90;;;;;;5054306;28;20401;-69
2021/08/10 03:12:52;;;;;;;4.33;3.37;;;15.00;99.90;;;;;;5054334;28;20410;-69
2021/08/10 03:15:23;;;;;;;4.93;3.60;;;14.90;99.90;;;;;;5054231;28;20401;-69
2021/08/10 03:17:55;;;;;;;3.80;3.43;;;14.90;99.90;;;;;;5054374;28;20402;-69
2021/08/10 03:20:23;;;;;;;5.27;3.67;;;14.90;99.90;;;;;;5054289;28;20967;-69
2021/08/10 03:22:49;;;;;;;5.73;4.67;;;14.90;99.90;;;;;;5054244;28;20962;-69
2021/08/10 03:25:18;;;;;;;3.60;3.30;;;14.90;99.90;;;;;;5054450;28;20772;-69
2021/08/10 03:27:45;;;;;;;7.20;4.33;;;14.90;99.90;;;;;;5053948;28;20455;-69
2021/08/10 03:30:12;;;;;;;3.50;3.20;;;14.80;99.90;;;;;;5054046;28;20432;-70
2021/08/10 03:32:38;;;;;;;4.60;3.37;;;14.90;99.90;;;;;;5053844;28;20586;-69
2021/08/10 03:35:05;;;;;;;4.50;4.10;;;14.90;99.90;;;;;;5054252;28;20779;-69
2021/08/10 03:37:32;;;;;;;3.70;3.40;;;14.90;99.90;;;;;;5053711;28;20409;-69
2021/08/10 03:40:00;;;;;;;3.67;3.13;;;14.90;99.90;;;;;;5054219;28;20851;-69
2021/08/10 03:42:26;;;;;;;3.73;3.30;;;15.00;99.90;;;;;;5052908;28;20417;-69
2021/08/10 03:44:53;;;;;;;3.50;3.13;;;15.00;99.90;;;;;;5053730;28;20511;-69
2021/08/10 03:47:19;;;;;;;5.47;3.60;;;15.00;99.90;;;;;;5053317;28;20987;-68
2021/08/10 03:49:46;;;;;;;6.47;3.97;;;15.00;99.90;;;;;;5053768;28;20398;-69
2021/08/10 03:52:13;;;;;;;5.10;3.00;;;15.00;99.90;;;;;;5052567;28;20249;-69
2021/08/10 03:54:39;;;;;;;3.60;3.10;;;15.00;99.90;;;;;;5053375;28;20424;-69
2021/08/10 03:57:06;;;;;;;3.63;3.30;;;15.00;99.90;;;;;;5053400;28;20409;-68
2021/08/10 03:59:33;;;;;;;3.90;3.50;;;15.00;99.90;;;;;;5053255;28;20410;-69
2021/08/10 04:01:59;;;;;;;3.33;3.03;;;14.90;99.90;;;;;;5053396;28;20437;-69
2021/08/10 04:04:27;;;;;;;4.77;3.80;;;14.90;99.90;;;;;;5053085;28;20548;-69
2021/08/10 04:06:54;;;;;;;4.10;3.70;;;14.90;99.90;;;;;;5053205;28;20766;-69
2021/08/10 04:09:21;;;;;;;5.47;3.53;;;14.90;99.90;;;;;;5053359;28;20491;-69
2021/08/10 04:11:47;;;;;;;5.20;3.70;;;14.90;99.90;;;;;;5053118;28;20798;-68
2021/08/10 04:14:14;;;;;;;4.33;3.93;;;14.90;99.90;;;;;;5053019;28;20504;-70
2021/08/10 04:16:48;;;;;;;4.23;3.83;;;14.90;99.90;;;;;;5053369;28;20178;-69
2021/08/10 04:19:14;;;;;;;3.60;3.30;;;15.00;99.90;;;;;;5052945;28;20457;-69
2021/08/10 04:21:41;;;;;;;4.70;3.60;;;15.00;99.90;;;;;;5052977;28;20417;-69
2021/08/10 04:24:06;;;;;;;3.70;3.37;;;15.00;99.90;;;;;;5052947;28;20481;-69
2021/08/10 04:26:33;;;;;;;3.93;3.37;;;15.00;99.90;;;;;;5052799;28;20926;-69
2021/08/10 04:29:00;;;;;;;3.70;3.13;;;15.10;99.90;;;;;;5052745;28;20300;-69
2021/08/10 04:31:25;;;;;;;6.47;4.33;;;15.10;99.90;;;;;;5052616;28;20414;-69
2021/08/10 04:33:51;;;;;;;3.43;3.13;;;15.10;99.90;;;;;;5052671;28;20409;-68
2021/08/10 04:36:16;;;;;;;3.60;3.30;;;15.10;99.90;;;;;;5052878;28;20175;-69
2021/08/10 04:38:42;;;;;;;4.47;4.07;;;15.20;99.90;;;;;;5052668;28;20172;-69
2021/08/10 04:41:07;;;;;;;3.37;3.07;;;15.10;99.90;;;;;;5052420;28;20187;-69
2021/08/10 04:43:34;;;;;;;4.30;3.67;;;15.20;99.90;;;;;;5052452;28;20167;-69
2021/08/10 04:45:59;;;;;;;4.77;3.80;;;15.20;99.90;;;;;;5052684;28;20282;-70
2021/08/10 04:48:25;;;;;;;5.47;3.70;;;15.20;99.90;;;;;;5052498;28;20896;-69
2021/08/10 04:50:50;;;;;;;3.60;3.30;;;15.30;99.90;;;;;;5052232;28;20191;-69
2021/08/10 04:53:16;;;;;;;5.43;3.47;;;15.20;99.90;;;;;;5052605;28;20634;-69
2021/08/10 04:55:41;;;;;;;4.23;3.10;;;15.20;99.90;;;;;;5050933;28;20227;-70
2021/08/10 04:58:07;;;;;;;5.07;3.47;;;15.30;99.90;;;;;;5050781;28;20171;-67
2021/08/10 05:00:32;;;;;;;3.87;3.57;;;15.30;99.90;;;;;;5052103;28;20638;-69
2021/08/10 05:02:58;;;;;;;4.43;3.40;;;15.40;99.90;;;;;;5052013;28;20265;-69
2021/08/10 05:05:23;;;;;;;4.63;3.10;;;15.50;99.90;;;;;;5052479;28;20199;-68
2021/08/10 05:07:49;;;;;;;4.60;4.13;;;15.60;99.90;;;;;;5052020;28;20637;-69
2021/08/10 05:10:14;;;;;;;4.30;2.90;;;15.50;99.90;;;;;;5052082;28;20167;-69
2021/08/10 05:12:39;;;;;;;3.00;2.80;;;15.60;99.90;;;;;;5051720;28;20552;-69
2021/08/10 05:15:06;;;;;;;4.73;3.50;;;15.70;99.90;;;;;;5051958;28;20292;-69
2021/08/10 05:17:31;;;;;;;3.33;2.97;;;15.70;99.90;;;;;;5051977;28;20172;-69
2021/08/10 05:19:57;;;;;;;3.43;3.13;;;15.80;99.90;;;;;;5051849;28;20417;-69
2021/08/10 05:22:22;;;;;;;3.80;3.23;;;15.80;99.90;;;;;;5051677;28;20187;-69
2021/08/10 05:24:48;;;;;;;5.00;3.30;;;15.90;99.90;;;;;;5051725;28;20672;-69
2021/08/10 05:27:13;;;;;;;5.53;2.60;;;16.20;99.90;;;;;;5051686;28;20692;-68
2021/08/10 05:29:39;;;;;;;4.50;3.10;;;16.60;99.90;;;;;;5051366;28;20258;-68
2021/08/10 05:32:05;;;;;;;3.07;2.77;;;16.90;99.90;;;;;;5051823;28;20180;-68
2021/08/10 05:34:30;;;;;;;2.90;2.63;;;17.10;99.90;;;;;;5051557;28;20173;-67
2021/08/10 05:36:56;;;;;;;4.40;2.90;;;17.30;99.90;;;;;;5052068;28;20239;-67
2021/08/10 05:39:21;;;;;;;2.90;2.20;;;17.30;99.90;;;;;;5051743;28;20532;-68
2021/08/10 05:41:46;;;;;;;3.40;2.60;;;17.40;99.90;;;;;;5051450;28;20280;-69
2021/08/10 05:44:15;;;;;;;2.93;2.70;;;17.70;99.90;;;;;;5051641;28;20202;-68
2021/08/10 05:46:40;;;;;;;4.33;3.93;;;18.60;99.90;;;;;;5051774;28;20192;-68
2021/08/10 05:49:06;;;;;;;4.80;2.50;;;18.70;99.90;;;;;;5051452;28;20435;-68
2021/08/10 05:51:32;;;;;;;2.53;2.33;;;19.00;99.90;;;;;;5051531;28;20255;-69
2021/08/10 05:53:57;;;;;;;4.50;2.60;;;19.50;99.90;;;;;;5051288;28;20173;-69
2021/08/10 05:56:22;;;;;;;4.40;2.77;;;19.90;99.90;;;;;;5051308;28;20178;-68
2021/08/10 05:58:48;;;;;;;6.97;2.90;;;19.40;99.90;;;;;;5051286;28;20191;-68
2021/08/10 06:01:13;;;;;;;7.37;2.50;;;19.70;99.90;;;;;;5051159;28;20194;-68
2021/08/10 06:03:39;;;;;;;4.10;3.00;;;19.70;99.90;;;;;;5050976;28;20779;-67
2021/08/10 06:06:04;;;;;;;5.63;2.53;;;19.70;99.90;;;;;;5051311;28;20176;-68
2021/08/10 06:08:30;;;;;;;2.80;2.40;;;20.00;99.90;;;;;;5051265;28;20169;-68
2021/08/10 06:10:55;;;;;;;2.80;2.33;;;20.40;99.90;;;;;;5050965;28;20239;-68
2021/08/10 06:13:21;;;;;;;5.00;2.30;;;20.80;99.90;;;;;;5051278;28;20252;-68
2021/08/10 06:15:46;;;;;;;5.37;2.20;;;20.60;99.90;;;;;;5051100;28;20179;-68
2021/08/10 06:18:12;;;;;;;3.43;2.20;;;20.90;99.90;;;;;;5051104;28;20182;-68
2021/08/10 06:20:37;;;;;;;3.43;2.90;;;20.90;99.90;;;;;;5051205;28;20333;-68
2021/08/10 06:23:04;;;;;;;5.20;2.60;;;21.20;99.90;;;;;;5051035;28;20257;-68
2021/08/10 06:25:29;;;;;;;4.27;2.50;;;21.50;99.90;;;;;;5051081;28;20202;-68
2021/08/10 06:27:55;;;;;;;3.80;2.80;;;22.00;99.90;;;;;;5051301;28;20499;-69
2021/08/10 06:30:20;;;;;;;3.83;2.37;;;22.10;99.90;;;;;;5051167;28;20189;-68
2021/08/10 06:32:46;;;;;;;2.60;1.90;;;22.20;99.90;;;;;;5051045;28;20183;-68
2021/08/10 06:35:11;;;;;;;3.30;3.00;;;22.70;99.90;;;;;;5051110;28;20541;-68
2021/08/10 06:37:37;;;;;;;2.80;2.10;;;22.60;99.90;;;;;;5051103;28;20470;-69
2021/08/10 06:40:03;;;;;;;2.57;2.27;;;22.80;99.90;;;;;;5051050;28;20182;-68
2021/08/10 06:42:29;;;;;;;3.00;2.67;;;22.80;99.90;;;;;;5054410;28;20276;-69
2021/08/10 06:44:54;;;;;;;4.00;2.97;;;22.80;99.90;;;;;;5055108;28;20450;-68
2021/08/10 06:47:19;;;;;;;3.47;2.50;;;22.40;99.90;;;;;;5054803;28;20341;-67
2021/08/10 06:49:45;;;;;;;5.87;2.80;;;22.30;99.90;;;;;;5054898;28;20165;-68
2021/08/10 06:52:11;;;;;;;2.83;2.60;;;23.50;99.90;;;;;;5053543;28;20656;-68
2021/08/10 06:54:37;;;;;;;7.90;2.70;;;23.40;99.90;;;;;;5054602;28;20171;-67
2021/08/10 06:57:06;;;;;;;3.33;2.03;;;23.60;99.90;;;;;;5055029;28;20419;-68
2021/08/10 06:59:36;;;;;;;3.13;2.30;;;24.10;99.90;;;;;;5054966;28;20409;-68
2021/08/10 07:02:05;;;;;;;3.40;2.40;;;23.40;99.90;;;;;;5054484;28;20432;-67
2021/08/10 07:04:31;;;;;;;5.53;2.50;;;24.00;99.90;;;;;;5054383;28;20496;-69
2021/08/10 07:06:56;;;;;;;3.00;1.97;;;23.40;99.90;;;;;;5054345;28;20454;-69
2021/08/10 07:09:22;;;;;;;4.87;2.73;;;23.10;99.90;;;;;;5054463;28;20165;-69
2021/08/10 07:11:48;;;;;;;4.43;2.37;;;22.50;99.90;;;;;;5054239;28;20183;-68
2021/08/10 07:14:14;;;;;;;2.40;2.20;;;22.50;99.90;;;;;;5054405;28;20235;-69
2021/08/10 07:16:41;;;;;;;4.07;2.60;;;21.90;99.90;;;;;;5054312;28;20399;-69
2021/08/10 07:19:07;;;;;;;4.23;2.33;;;22.10;99.90;;;;;;5054261;28;20765;-70
2021/08/10 07:21:33;;;;;;;4.37;2.07;;;22.60;99.90;;;;;;5053608;28;20454;-70
2021/08/10 07:23:59;;;;;;;4.73;1.93;;;22.50;99.90;;;;;;5053959;28;20734;-70
2021/08/10 07:26:25;;;;;;;3.30;2.40;;;21.70;99.90;;;;;;5054205;28;20461;-70
2021/08/10 07:28:50;;;;;;;2.70;2.50;;;21.60;99.90;;;;;;5054501;28;20171;-70
2021/08/10 07:31:16;;;;;;;3.70;2.10;;;21.70;99.90;;;;;;5054017;28;20186;-70
2021/08/10 07:33:42;;;;;;;2.53;1.93;;;21.50;99.90;;;;;;5054296;28;20166;-70
2021/08/10 07:36:07;;;;;;;3.70;2.37;;;21.50;99.90;;;;;;5053060;28;20637;-70
2021/08/10 07:38:33;;;;;;;4.87;1.90;;;21.20;99.90;;;;;;5052722;28;20172;-71
2021/08/10 07:40:59;;;;;;;4.43;3.10;;;21.10;99.90;;;;;;5053125;28;20189;-70
2021/08/10 07:43:25;;;;;;;4.70;2.77;;;20.80;99.90;;;;;;5054837;28;20169;-69
2021/08/10 07:45:51;;;;;;;3.50;2.60;;;20.60;99.90;;;;;;5054230;28;20463;-69
2021/08/10 07:48:16;;;;;;;2.40;2.00;;;21.10;99.90;;;;;;5054181;28;20539;-71
2021/08/10 07:50:43;;;;;;;4.47;2.43;;;21.50;99.90;;;;;;5054182;28;20872;-69
2021/08/10 07:53:09;;;;;;;4.00;2.57;;;21.20;99.90;;;;;;5053200;28;20172;-69
2021/08/10 07:55:36;;;;;;;4.50;2.70;;;21.10;99.90;;;;;;5054076;28;20412;-70
2021/08/10 07:58:01;;;;;;;3.23;2.63;;;21.10;99.90;;;;;;5054089;28;20182;-70
2021/08/10 08:00:27;;;;;;;6.23;2.27;;;21.70;99.90;;;;;;5052544;28;20427;-69
2021/08/10 08:02:52;;;;;;;3.23;2.50;;;21.20;99.90;;;;;;5053744;28;20231;-70
2021/08/10 08:05:18;;;;;;;4.70;2.30;;;21.20;99.90;;;;;;5053912;28;20276;-70
2021/08/10 08:07:44;;;;;;;2.93;2.10;;;21.10;99.90;;;;;;5052268;28;20547;-70
2021/08/10 08:10:10;;;;;;;3.43;2.80;;;21.00;99.90;;;;;;5053801;28;20177;-70
2021/08/10 08:12:36;;;;;;;4.53;2.50;;;20.90;99.90;;;;;;5053622;28;20557;-70
2021/08/10 08:15:02;;;;;;;3.10;2.00;;;20.80;99.90;;;;;;5053695;28;20403;-70
2021/08/10 08:17:28;;;;;;;3.30;2.47;;;21.10;99.90;;;;;;5053455;28;20175;-70
2021/08/10 08:19:53;;;;;;;7.10;3.53;;;20.90;99.90;;;;;;5053609;28;20408;-69
2021/08/10 08:22:19;;;;;;;3.77;2.50;;;20.80;99.90;;;;;;5053295;28;20192;-70
2021/08/10 08:24:44;;;;;;;4.47;3.07;;;20.60;99.90;;;;;;5053682;28;20196;-71
2021/08/10 08:27:09;;;;;;;4.90;2.70;;;20.70;99.90;;;;;;5053339;28;20281;-68
2021/08/10 08:29:35;;;;;;;4.60;2.63;;;20.50;99.90;;;;;;5052274;28;20180;-70
2021/08/10 08:32:00;;;;;;;3.43;2.63;;;20.50;99.90;;;;;;5053421;28;20228;-69
2021/08/10 08:34:26;;;;;;;3.50;2.77;;;20.30;99.90;;;;;;5052090;28;20172;-69
2021/08/10 08:36:51;;;;;;;3.00;2.33;;;20.40;99.90;;;;;;5053091;28;20308;-70
2021/08/10 08:39:17;;;;;;;4.50;2.80;;;20.50;99.90;;;;;;5053247;28;20177;-69
2021/08/10 08:41:44;;;;;;;5.83;2.93;;;20.30;99.90;;;;;;5053030;28;20195;-69
2021/08/10 08:44:10;;;;;;;5.43;2.47;;;20.30;99.90;;;;;;5053039;28;20199;-70
2021/08/10 08:46:37;;;;;;;3.60;3.20;;;20.70;99.90;;;;;;5053506;28;20603;-69
2021/08/10 08:49:05;;;;;;;4.80;2.97;;;20.80;99.90;;;;;;5052920;28;20171;-69
2021/08/10 08:51:32;;;;;;;9.80;3.00;;;20.60;99.90;;;;;;5052928;28;20809;-70
2021/08/10 08:54:01;;;;;;;3.93;2.83;;;20.70;99.90;;;;;;5052996;28;20406;-70
2021/08/10 08:56:27;;;;;;;3.73;3.40;;;20.60;99.90;;;;;;5052941;28;20903;-69
2021/08/10 08:58:53;;;;;;;6.47;3.50;;;20.80;99.90;;;;;;5053108;28;20408;-68
2021/08/10 09:01:19;;;;;;;7.50;3.00;;;20.80;99.90;;;;;;5052791;28;20271;-69
2021/08/10 09:03:44;;;;;;;4.73;2.80;;;20.90;99.90;;;;;;5052586;28;20185;-69
2021/08/10 09:06:10;;;;;;;4.70;2.97;;;21.00;99.90;;;;;;5051826;28;20204;-69
2021/08/10 09:08:42;;;;;;;3.73;2.70;;;21.30;99.90;;;;;;5052650;28;20184;-70
2021/08/10 09:11:11;;;;;;;2.70;2.37;;;21.20;99.90;;;;;;5052593;28;20665;-70
2021/08/10 09:13:42;;;;;;;3.10;2.80;;;21.20;99.90;;;;;;5051465;28;20451;-68
2021/08/10 09:16:08;;;;;;;6.50;3.17;;;21.10;99.90;;;;;;5052416;28;20468;-68
2021/08/10 09:18:38;;;;;;;10.27;2.87;;;21.10;99.90;;;;;;5052309;28;20419;-69
2021/08/10 09:21:16;;;;;;;7.40;2.87;;;21.20;99.90;;;;;;5051088;28;20446;-68
2021/08/10 09:23:47;;;;;;;6.43;2.33;;;21.70;99.90;;;;;;5052514;28;20473;-70
2021/08/10 09:26:37;;;;;;;3.77;2.50;;;21.50;99.90;;;;;;5052457;28;20533;-72
2021/08/10 09:29:03;;;;;;;5.70;2.77;;;21.50;99.90;;;;;;5052027;28;20407;-70
2021/08/10 09:31:39;;;;;;;2.87;2.30;;;21.90;99.90;;;;;;5052250;28;20428;-69
2021/08/10 09:34:15;;;;;;;3.90;2.53;;;22.40;99.90;;;;;;5052201;28;20395;-69
2021/08/10 09:36:41;;;;;;;5.10;2.57;;;22.80;99.90;;;;;;5050656;28;20410;-69
2021/08/10 09:39:07;;;;;;;3.37;2.10;;;23.40;99.90;;;;;;5051870;28;20805;-70
2021/08/10 09:41:33;;;;;;;6.10;2.87;;;22.70;99.90;;;;;;5050424;28;20186;-69
2021/08/10 09:44:17;;;;;;;2.77;2.57;;;23.30;99.90;;;;;;5050646;28;20171;-69
2021/08/10 09:46:48;;;;;;;6.97;3.03;;;22.80;99.90;;;;;;5052203;28;20596;-69
2021/08/10 09:49:15;;;;;;;3.90;2.00;;;22.80;99.90;;;;;;5052047;28;20912;-72
2021/08/10 09:51:42;;;;;;;2.90;2.00;;;22.90;99.90;;;;;;5052319;28;20802;-70
2021/08/10 09:54:11;;;;;;;3.93;2.17;;;23.60;99.90;;;;;;5051921;28;20432;-70
2021/08/10 09:59:20;;;;;;;5.13;2.57;;;23.30;99.90;;;;;;5051820;28;20407;-70
2021/08/10 10:01:51;;;;;;;4.20;2.40;;;23.00;99.90;;;;;;5051842;28;20427;-69
2021/08/10 10:04:23;;;;;;;4.30;2.40;;;22.90;99.90;;;;;;5051516;28;20996;-69
2021/08/10 10:06:57;;;;;;;5.13;3.00;;;23.10;99.90;;;;;;5051729;28;20754;-69
2021/08/10 10:09:24;;;;;;;2.30;2.10;;;23.10;99.90;;;;;;5051754;28;20396;-69
2021/08/10 10:11:52;;;;;;;8.80;2.70;;;23.20;99.90;;;;;;5051523;28;20425;-69
2021/08/10 10:14:18;;;;;;;3.73;2.50;;;23.60;99.90;;;;;;5051688;28;20838;-69
2021/08/10 10:16:48;;;;;;;3.50;3.20;;;23.30;99.90;;;;;;5051152;28;20409;-69
2021/08/10 10:19:15;;;;;;;6.53;2.67;;;23.10;99.90;;;;;;5051651;28;20547;-69
2021/08/10 10:21:48;;;;;;;2.70;1.97;;;23.30;99.90;;;;;;5051594;28;20424;-69
2021/08/10 10:24:15;;;;;;;6.83;4.43;;;23.60;99.90;;;;;;5051641;28;20455;-69
2021/08/10 10:26:44;;;;;;;4.53;2.57;;;23.70;99.90;;;;;;5051469;28;20840;-69
2021/08/10 10:29:13;;;;;;;2.40;2.20;;;23.50;99.90;;;;;;5051483;28;20411;-69
2021/08/10 10:31:39;;;;;;;4.80;2.50;;;23.30;99.90;;;;;;5051451;28;20947;-69
2021/08/10 10:34:06;;;;;;;3.00;2.30;;;22.60;99.90;;;;;;5051483;28;20462;-69
2021/08/10 10:36:32;;;;;;;4.20;2.50;;;22.60;99.90;;;;;;5051450;28;20415;-69
2021/08/10 10:38:59;;;;;;;4.80;1.90;;;22.80;99.90;;;;;;5051551;28;20426;-69
2021/08/10 10:41:30;;;;;;;1.73;1.63;;;22.80;99.90;;;;;;5051296;28;20422;-69
2021/08/10 10:43:56;;;;;;;2.80;1.90;;;22.80;99.90;;;;;;5051171;28;20400;-69
2021/08/10 10:46:29;;;;;;;3.80;2.37;;;23.40;99.90;;;;;;5051504;28;20403;-69
2021/08/10 10:48:56;;;;;;;2.70;2.20;;;23.70;99.90;;;;;;5051523;28;20174;-69
2021/08/10 10:51:27;;;;;;;4.37;2.23;;;23.20;99.90;;;;;;5053379;28;20458;-70
2021/08/10 10:54:08;;;;;;;3.93;1.97;;;22.80;99.90;;;;;;5055287;28;20957;-69
2021/08/10 10:56:34;;;;;;;3.43;1.97;;;22.80;99.90;;;;;;5055847;28;20421;-70
2021/08/10 10:59:32;;;;;;;6.67;2.37;;;22.60;99.90;;;;;;5056055;28;20407;-70
2021/08/10 11:02:11;;;;;;;2.77;2.30;;;22.40;99.90;;;;;;5055050;28;20427;-71
2021/08/10 11:04:36;;;;;;;3.27;1.93;;;22.60;99.90;;;;;;5055056;28;20478;-71
2021/08/10 11:07:36;;;;;;;2.87;2.50;;;22.60;99.90;;;;;;5054163;28;20406;-70
2021/08/10 11:10:06;;;;;;;5.70;2.17;;;22.20;99.90;;;;;;5053694;28;20170;-70
2021/08/10 11:12:41;;;;;;;4.33;2.40;;;22.10;99.90;;;;;;5052076;28;20867;-69
2021/08/10 11:15:08;;;;;;;9.17;2.53;;;22.10;99.90;;;;;;5051087;28;20805;-69
2021/08/10 11:17:36;;;;;;;2.30;2.03;;;22.20;99.90;;;;;;5050985;28;20418;-68
2021/08/10 11:20:22;;;;;;;2.47;2.00;;;22.10;99.90;;;;;;5051032;28;20496;-68
2021/08/10 11:22:48;;;;;;;6.30;3.20;;;22.60;99.90;;;;;;5051140;28;20488;-68
2021/08/10 11:25:23;;;;;;;4.77;1.93;;;22.80;99.90;;;;;;5051211;28;20528;-68
2021/08/10 11:27:49;;;;;;;4.07;2.03;;;23.00;99.90;;;;;;5052366;28;20178;-69
2021/08/10 11:30:20;;;;;;;2.93;1.90;;;23.00;99.90;;;;;;5054531;28;20490;-68
2021/08/10 11:32:50;;;;;;;3.47;2.43;;;23.30;99.90;;;;;;5054751;28;20180;-69
2021/08/10 11:35:33;;;;;;;3.10;1.50;;;22.90;99.90;;;;;;5054742;28;20426;-69
2021/08/10 11:38:16;;;;;;;2.53;2.00;;;22.80;99.90;;;;;;5054640;28;20762;-69
2021/08/10 11:40:54;;;;;;;2.57;2.10;;;22.80;99.90;;;;;;5054494;28;20431;-69
2021/08/10 11:43:44;;;;;;;4.50;2.00;;;22.80;99.90;;;;;;5054432;28;20964;-69
2021/08/10 11:46:37;;;;;;;4.80;2.47;;;23.00;99.90;;;;;;5054141;28;20990;-69
2021/08/10 11:49:04;;;;;;;3.13;2.67;;;23.20;99.90;;;;;;5054249;28;20396;-69
2021/08/10 11:51:41;;;;;;;4.50;2.90;;;23.30;99.90;;;;;;5054186;28;20429;-69
2021/08/10 11:54:17;;;;;;;3.43;2.10;;;23.30;99.90;;;;;;5054340;28;20458;-70
2021/08/10 11:56:48;;;;;;;3.13;2.03;;;23.40;99.90;;;;;;5054016;28;20948;-69
2021/08/10 11:59:20;;;;;;;2.10;1.90;;;23.60;99.90;;;;;;5054564;28;20752;-69
2021/08/10 12:01:47;;;;;;;3.70;1.90;;;24.10;99.90;;;;;;5054196;28;21009;-69
2021/08/10 12:04:17;;;;;;;3.43;2.47;;;24.00;99.90;;;;;;5054166;28;20574;-69
2021/08/10 12:06:45;;;;;;;2.30;2.10;;;24.10;99.90;;;;;;5053996;28;20429;-69
2021/08/10 12:09:15;;;;;;;2.87;2.57;;;23.40;99.90;;;;;;5053987;28;20974;-69
2021/08/10 12:11:42;;;;;;;3.20;2.10;;;23.30;99.90;;;;;;5054337;28;20422;-69
2021/08/10 12:14:16;;;;;;;4.57;2.30;;;23.70;99.90;;;;;;5054078;28;20731;-68
2021/08/10 12:16:56;;;;;;;4.50;2.70;;;23.60;99.90;;;;;;5052791;28;20422;-68
2021/08/10 12:19:40;;;;;;;4.03;2.40;;;23.30;99.90;;;;;;5053773;28;20412;-67
2021/08/10 12:22:27;;;;;;;3.80;2.67;;;23.50;99.90;;;;;;5053632;28;20418;-68
2021/08/10 12:24:55;;;;;;;2.80;2.60;;;23.40;99.90;;;;;;5053663;28;20805;-68
2021/08/10 12:27:28;;;;;;;2.80;2.27;;;23.30;99.90;;;;;;5053863;28;20439;-69
2021/08/10 12:29:53;;;;;;;3.20;2.47;;;22.90;99.90;;;;;;5053600;28;20390;-69
2021/08/10 12:32:25;;;;;;;4.17;2.57;;;23.10;99.90;;;;;;5053191;28;20429;-69
2021/08/10 12:34:51;;;;;;;3.07;2.33;;;23.20;99.90;;;;;;5053600;28;20239;-69
2021/08/10 12:37:26;;;;;;;2.90;2.23;;;23.60;99.90;;;;;;5053577;28;20411;-69
2021/08/10 12:39:52;;;;;;;2.93;2.27;;;24.00;99.90;;;;;;5053318;28;20422;-69
2021/08/10 12:42:18;;;;;;;3.67;2.87;;;24.30;99.90;;;;;;5053183;28;20429;-69
2021/08/10 12:44:49;;;;;;;4.03;2.40;;;24.30;99.90;;;;;;5053175;28;20194;-69
2021/08/10 12:47:16;;;;;;;2.73;2.43;;;24.30;99.90;;;;;;5053169;28;20444;-69
2021/08/10 12:49:43;;;;;;;2.80;2.00;;;24.30;99.90;;;;;;5053111;28;20405;-69
2021/08/10 12:52:11;;;;;;;3.80;2.47;;;24.40;99.90;;;;;;5052887;28;20454;-69
2021/08/10 12:54:39;;;;;;;2.27;2.07;;;24.50;99.90;;;;;;5053155;28;20432;-69
2021/08/10 12:57:18;;;;;;;2.33;2.13;;;24.60;99.90;;;;;;5052661;28;20406;-69